Time;durP1;ratioP1;P1;durP2;ratioP2;P2;SDS_P1;SDS_P2;PMS_P1;PMS_P2;Temp;Humidity;BMP_temperature;BMP_pressure;BME280_temperature;BME280_humidity;BME280_pressure;Samples;Min_cycle;Max_cycle;Signal;HPM_P1;HPM_P2
2021/11/20 00:00:40;;;;;;;13.87;9.63;;;10.80;99.90;;;;;;5093771;28;20185;-85
2021/11/20 00:03:07;;;;;;;11.97;8.17;;;10.80;99.90;;;;;;5094311;28;20182;-83
2021/11/20 00:05:39;;;;;;;14.37;8.80;;;10.80;99.90;;;;;;5096469;28;20226;-84
2021/11/20 00:08:06;;;;;;;14.27;9.37;;;10.80;99.90;;;;;;5095233;28;20587;-85
2021/11/20 00:10:34;;;;;;;14.87;8.47;;;10.80;99.90;;;;;;5110851;28;20170;-84
2021/11/20 00:13:00;;;;;;;11.60;7.63;;;10.80;99.90;;;;;;5111724;28;20692;-84
2021/11/20 00:15:30;;;;;;;15.07;7.63;;;10.40;99.90;;;;;;5098470;28;20201;-84
2021/11/20 00:17:57;;;;;;;9.33;7.83;;;;;;;;;;5098133;28;20197;-84
2021/11/20 00:20:25;;;;;;;11.00;7.50;;;10.80;99.90;;;;;;5098045;28;20639;-84
2021/11/20 00:22:52;;;;;;;11.90;7.67;;;10.80;99.90;;;;;;5097960;28;20174;-85
2021/11/20 00:25:23;;;;;;;11.43;6.97;;;10.80;99.90;;;;;;5097123;28;20281;-83
2021/11/20 00:27:53;;;;;;;10.30;8.07;;;10.80;99.90;;;;;;5116792;28;20198;-85
2021/11/20 00:30:23;;;;;;;10.30;5.87;;;10.80;99.90;;;;;;5097784;28;20265;-85
2021/11/20 00:33:09;;;;;;;7.63;5.30;;;10.80;99.90;;;;;;5099154;28;20182;-85
2021/11/20 00:35:39;;;;;;;14.33;7.43;;;10.90;99.90;;;;;;5097522;28;20618;-84
2021/11/20 00:38:06;;;;;;;8.73;6.43;;;11.10;99.90;;;;;;5097080;28;20181;-84
2021/11/20 00:40:37;;;;;;;10.33;6.60;;;10.90;99.90;;;;;;5096480;28;20179;-84
2021/11/20 00:43:03;;;;;;;11.63;8.73;;;10.90;99.90;;;;;;5097363;28;20216;-85
2021/11/20 00:45:29;;;;;;;12.13;8.30;;;10.70;99.90;;;;;;5095683;28;20251;-84
2021/11/20 00:47:56;;;;;;;12.80;9.33;;;;;;;;;;5097426;28;20634;-84
2021/11/20 00:50:22;;;;;;;11.67;6.43;;;;;;;;;;5095803;28;20178;-84
2021/11/20 00:52:48;;;;;;;11.40;8.70;;;10.80;99.90;;;;;;5096811;28;20190;-85
2021/11/20 00:55:20;;;;;;;11.03;6.83;;;11.00;99.90;;;;;;5112571;28;20174;-85
2021/11/20 00:57:47;;;;;;;10.20;7.37;;;11.40;99.90;;;;;;5096667;28;20190;-83
2021/11/20 01:00:14;;;;;;;14.47;8.63;;;11.10;99.90;;;;;;5112178;28;20179;-83
2021/11/20 01:02:41;;;;;;;12.80;8.67;;;;;;;;;;5095484;28;20654;-84
2021/11/20 01:05:07;;;;;;;11.63;8.13;;;11.60;99.90;;;;;;5096713;28;20178;-84
2021/11/20 01:07:33;;;;;;;14.20;8.93;;;11.00;99.90;;;;;;5095014;28;20183;-84
2021/11/20 01:09:59;;;;;;;8.60;5.83;;;10.70;99.90;;;;;;5096305;28;20175;-84
2021/11/20 01:12:29;;;;;;;12.40;6.80;;;11.00;99.90;;;;;;5112053;28;20208;-85
2021/11/20 01:14:56;;;;;;;17.23;6.40;;;11.20;99.90;;;;;;5096732;28;20159;-84
2021/11/20 01:17:24;;;;;;;11.53;6.43;;;11.20;99.90;;;;;;5096100;28;20269;-83
2021/11/20 01:19:51;;;;;;;7.47;5.20;;;10.80;99.90;;;;;;5095994;28;20190;-84
2021/11/20 01:22:18;;;;;;;7.87;5.57;;;11.20;99.90;;;;;;5096414;28;20629;-83
2021/11/20 01:24:45;;;;;;;11.07;5.03;;;11.20;99.90;;;;;;5095903;28;20227;-84
2021/11/20 01:27:11;;;;;;;5.13;4.63;;;11.20;99.90;;;;;;5094652;28;20182;-84
2021/11/20 01:29:37;;;;;;;10.10;5.77;;;11.20;99.90;;;;;;5096494;28;20632;-84
2021/11/20 01:32:04;;;;;;;9.37;6.03;;;11.00;99.90;;;;;;5095599;28;20190;-84
2021/11/20 01:34:30;;;;;;;9.80;5.43;;;11.60;99.90;;;;;;5094394;28;20175;-83
2021/11/20 01:36:59;;;;;;;9.00;5.97;;;11.30;99.90;;;;;;5111328;28;20294;-83
2021/11/20 01:39:28;;;;;;;9.00;5.20;;;11.30;99.90;;;;;;5095592;28;20178;-83
2021/11/20 01:42:02;;;;;;;5.23;4.73;;;11.40;99.90;;;;;;5095858;28;20178;-83
2021/11/20 01:44:49;;;;;;;5.50;5.00;;;11.20;99.90;;;;;;5094652;28;20178;-83
2021/11/20 01:47:44;;;;;;;10.33;5.03;;;11.50;99.90;;;;;;5095838;28;20651;-84
2021/11/20 01:50:15;;;;;;;7.13;4.73;;;11.20;99.90;;;;;;5087192;28;20202;-84
2021/11/20 01:53:11;;;;;;;6.23;4.67;;;11.30;99.90;;;;;;5094549;28;20178;-83
2021/11/20 01:55:59;;;;;;;7.77;5.43;;;11.10;99.90;;;;;;5095445;28;20248;-84
2021/11/20 01:58:40;;;;;;;9.40;5.50;;;11.10;99.90;;;;;;5095643;28;20167;-84
2021/11/20 02:01:09;;;;;;;10.40;4.40;;;10.90;99.90;;;;;;5095268;28;20171;-84
2021/11/20 02:03:42;;;;;;;6.83;3.97;;;11.20;99.90;;;;;;5093938;28;20174;-84
2021/11/20 02:06:28;;;;;;;5.40;4.30;;;10.90;99.90;;;;;;5095497;28;20234;-84
2021/11/20 02:09:05;;;;;;;8.43;5.10;;;11.50;99.90;;;;;;5094902;28;20223;-84
2021/11/20 02:11:40;;;;;;;5.73;4.70;;;11.20;99.90;;;;;;5094262;28;20541;-83
2021/11/20 02:14:08;;;;;;;7.33;4.00;;;11.10;99.90;;;;;;5093566;28;20184;-84
2021/11/20 02:16:54;;;;;;;6.97;4.23;;;11.10;99.90;;;;;;5093628;28;20301;-84
2021/11/20 02:19:26;;;;;;;6.13;3.80;;;11.10;99.90;;;;;;5094510;28;20279;-84
2021/11/20 02:21:55;;;;;;;10.07;4.43;;;11.10;99.90;;;;;;5094928;28;20182;-91
2021/11/20 02:24:20;;;;;;;7.83;3.83;;;11.10;99.90;;;;;;5094753;28;20190;-83
2021/11/20 02:26:46;;;;;;;7.17;3.87;;;;;;;;;;5093376;28;20190;-83
2021/11/20 02:29:13;;;;;;;9.93;4.20;;;11.10;99.90;;;;;;5094469;28;20663;-83
2021/11/20 02:31:47;;;;;;;7.20;4.40;;;10.80;99.90;;;;;;5094517;28;20186;-83
2021/11/20 02:34:15;;;;;;;5.25;3.95;;;11.50;99.90;;;;;;5093771;28;20183;-83
2021/11/20 02:36:40;;;;;;;8.50;4.07;;;11.00;99.90;;;;;;5095876;28;20202;-84
2021/11/20 02:39:13;;;;;;;5.20;4.00;;;11.20;99.90;;;;;;5112046;28;20236;-84
2021/11/20 02:41:41;;;;;;;11.10;4.47;;;11.20;99.90;;;;;;5095105;28;20559;-84
2021/11/20 02:44:08;;;;;;;9.52;4.43;;;11.20;99.90;;;;;;5093963;28;20273;-85
2021/11/20 02:46:41;;;;;;;5.83;3.93;;;11.10;99.90;;;;;;5095404;28;20201;-83
2021/11/20 02:49:09;;;;;;;4.63;3.13;;;11.20;99.90;;;;;;5095047;28;20177;-84
2021/11/20 02:51:38;;;;;;;8.40;3.60;;;11.30;99.90;;;;;;5095144;28;20167;-84
2021/11/20 02:54:11;;;;;;;4.37;3.30;;;10.80;99.90;;;;;;5094813;28;20178;-84
2021/11/20 02:56:45;;;;;;;13.30;3.97;;;11.50;99.90;;;;;;5093655;28;20210;-84
2021/11/20 02:59:11;;;;;;;5.03;3.20;;;11.30;99.90;;;;;;5097438;28;20227;-83
2021/11/20 03:01:38;;;;;;;5.97;3.47;;;11.10;99.90;;;;;;5124056;28;20240;-83
2021/11/20 03:04:09;;;;;;;5.40;3.10;;;11.20;99.90;;;;;;5109575;28;20249;-84
2021/11/20 03:06:35;;;;;;;7.47;3.57;;;11.20;99.90;;;;;;5113362;28;20206;-85
2021/11/20 03:09:03;;;;;;;5.97;2.72;;;11.50;99.90;;;;;;5114042;28;20182;-85
2021/11/20 03:11:28;;;;;;;8.07;3.28;;;11.30;99.90;;;;;;5118958;28;20173;-84
2021/11/20 03:13:57;;;;;;;9.13;3.03;;;11.20;99.90;;;;;;5118749;28;20187;-84
2021/11/20 03:16:23;;;;;;;6.40;3.35;;;10.90;99.90;;;;;;5118654;28;20210;-84
2021/11/20 03:18:50;;;;;;;7.15;3.00;;;11.20;99.90;;;;;;5135375;27;20193;-84
2021/11/20 03:21:17;;;;;;;5.88;3.20;;;11.30;99.90;;;;;;5118512;28;20182;-85
2021/11/20 03:23:48;;;;;;;5.83;2.83;;;11.40;99.90;;;;;;5118763;28;20174;-84
2021/11/20 03:26:14;;;;;;;9.00;2.90;;;11.40;99.90;;;;;;5118248;28;20175;-84
2021/11/20 03:28:39;;;;;;;6.17;2.83;;;11.20;99.90;;;;;;5118629;28;20185;-84
2021/11/20 03:31:06;;;;;;;6.17;2.50;;;;;;;;;;5118531;28;20174;-96
2021/11/20 03:33:31;;;;;;;6.57;2.70;;;11.60;99.90;;;;;;5122207;27;20291;-84
2021/11/20 03:35:57;;;;;;;4.23;2.43;;;;;;;;;;5092424;28;20680;-84
2021/11/20 03:38:24;;;;;;;4.97;2.37;;;11.10;99.90;;;;;;5093442;28;20183;-84
2021/11/20 03:40:50;;;;;;;3.70;2.37;;;11.60;99.90;;;;;;5093714;28;20261;-83
2021/11/20 03:43:16;;;;;;;4.13;2.47;;;11.70;99.90;;;;;;5109342;28;20273;-84
2021/11/20 03:45:43;;;;;;;6.50;2.77;;;11.40;99.90;;;;;;5092282;28;20227;-84
2021/11/20 03:48:10;;;;;;;10.87;3.00;;;11.60;99.90;;;;;;5093853;28;20183;-85
2021/11/20 03:50:36;;;;;;;7.43;2.38;;;11.10;99.90;;;;;;5096556;28;20623;-85
2021/11/20 03:53:04;;;;;;;4.07;2.30;;;11.20;99.90;;;;;;5097939;28;20391;-86
2021/11/20 03:55:33;;;;;;;2.80;2.30;;;11.70;99.90;;;;;;5096188;28;20184;-83
2021/11/20 03:57:59;;;;;;;5.63;2.30;;;11.40;99.90;;;;;;5097699;28;20206;-83
2021/11/20 04:00:28;;;;;;;4.63;2.30;;;11.60;99.90;;;;;;5096316;28;20190;-84
2021/11/20 04:02:54;;;;;;;5.70;2.30;;;11.40;99.90;;;;;;5097517;28;20669;-83
2021/11/20 04:05:21;;;;;;;4.43;2.33;;;;;;;;;;5112674;28;20226;-83
2021/11/20 04:07:47;;;;;;;6.30;2.07;;;11.70;99.90;;;;;;5097848;28;20170;-83
2021/11/20 04:10:14;;;;;;;5.73;2.70;;;11.10;99.90;;;;;;5112805;28;20175;-83
2021/11/20 04:12:40;;;;;;;3.00;2.13;;;11.40;99.90;;;;;;5095928;28;20213;-84
2021/11/20 04:15:09;;;;;;;2.72;2.05;;;11.60;99.90;;;;;;5095808;28;20206;-84
2021/11/20 04:17:35;;;;;;;6.68;2.40;;;11.30;99.90;;;;;;5097385;28;20202;-83
2021/11/20 04:20:03;;;;;;;9.57;2.30;;;11.50;99.90;;;;;;5097034;28;20179;-83
2021/11/20 04:22:29;;;;;;;5.82;2.50;;;11.40;99.90;;;;;;5112563;28;20181;-83
2021/11/20 04:24:55;;;;;;;7.55;2.25;;;;;;;;;;5096757;28;20170;-84
2021/11/20 04:27:21;;;;;;;7.15;2.03;;;10.90;99.90;;;;;;5112466;28;20646;-85
2021/11/20 04:29:47;;;;;;;3.13;2.15;;;;;;;;;;5095815;28;20185;-84
2021/11/20 04:32:12;;;;;;;2.83;2.03;;;11.60;99.90;;;;;;5095511;28;20199;-85
2021/11/20 04:34:39;;;;;;;6.15;2.80;;;;;;;;;;5095767;28;20183;-85
2021/11/20 04:37:07;;;;;;;6.82;2.00;;;11.50;99.90;;;;;;5097014;28;20245;-84
2021/11/20 04:39:33;;;;;;;7.53;2.38;;;11.20;99.90;;;;;;5095803;28;20186;-84
2021/11/20 04:41:58;;;;;;;6.35;2.20;;;11.50;99.90;;;;;;5078050;28;20187;-84
2021/11/20 04:44:24;;;;;;;2.80;1.92;;;;;;;;;;5112550;28;20186;-84
2021/11/20 04:46:50;;;;;;;6.37;2.27;;;11.40;99.90;;;;;;5095622;28;20204;-84
2021/11/20 04:49:16;;;;;;;5.13;1.93;;;;;;;;;;5096173;28;20643;-85
2021/11/20 04:51:42;;;;;;;4.03;2.35;;;11.10;99.90;;;;;;5095247;28;20274;-85
2021/11/20 04:54:07;;;;;;;6.55;2.20;;;11.40;99.90;;;;;;5112490;28;20213;-84
2021/11/20 04:56:34;;;;;;;5.13;2.22;;;;;;;;;;5096402;28;20340;-84
2021/11/20 04:58:59;;;;;;;7.17;2.17;;;10.80;99.90;;;;;;5096074;28;20643;-85
2021/11/20 05:01:26;;;;;;;5.05;2.35;;;11.20;99.90;;;;;;5094916;28;20320;-85
2021/11/20 05:03:53;;;;;;;4.97;2.08;;;11.20;99.90;;;;;;5096170;28;20173;-84
2021/11/20 05:06:21;;;;;;;3.63;2.13;;;10.80;99.90;;;;;;5094481;28;20646;-84
2021/11/20 05:08:47;;;;;;;5.45;2.17;;;11.40;99.90;;;;;;5095563;28;20281;-85
2021/11/20 05:11:13;;;;;;;4.88;1.92;;;;;;;;;;5095711;28;20752;-85
2021/11/20 05:13:39;;;;;;;4.85;2.28;;;11.20;99.90;;;;;;5094279;28;20272;-84
2021/11/20 05:16:06;;;;;;;8.00;2.50;;;;;;;;;;5094569;28;20281;-85
2021/11/20 05:18:31;;;;;;;3.70;2.00;;;11.00;99.90;;;;;;5095851;28;20206;-84
2021/11/20 05:21:00;;;;;;;5.68;1.90;;;11.40;99.90;;;;;;5094664;28;20276;-84
2021/11/20 05:23:28;;;;;;;6.47;2.33;;;10.90;99.90;;;;;;5095653;28;20649;-84
2021/11/20 05:25:54;;;;;;;5.05;2.15;;;10.80;99.90;;;;;;5087191;28;20258;-84
2021/11/20 05:28:20;;;;;;;5.17;1.77;;;11.10;99.90;;;;;;5087608;28;20623;-84
2021/11/20 05:30:48;;;;;;;9.90;2.78;;;11.20;99.90;;;;;;5080963;28;20182;-83
2021/11/20 05:33:24;;;;;;;2.67;1.80;;;11.20;99.90;;;;;;5087060;28;20179;-92
2021/11/20 05:35:50;;;;;;;7.87;2.47;;;10.80;99.90;;;;;;5085481;28;20709;-84
2021/11/20 05:38:16;;;;;;;5.13;1.80;;;11.10;99.90;;;;;;5081411;28;20232;-84
2021/11/20 05:40:42;;;;;;;5.83;1.73;;;11.20;99.90;;;;;;5089366;28;20666;-84
2021/11/20 05:43:12;;;;;;;4.37;2.40;;;10.70;99.90;;;;;;5092539;28;20247;-84
2021/11/20 05:45:40;;;;;;;5.90;1.90;;;11.50;99.90;;;;;;5087556;28;20175;-84
2021/11/20 05:48:06;;;;;;;4.83;2.27;;;11.20;99.90;;;;;;5082866;28;20175;-86
2021/11/20 05:50:33;;;;;;;6.00;2.20;;;11.30;99.90;;;;;;5081729;28;20175;-87
2021/11/20 05:52:59;;;;;;;7.80;2.20;;;10.70;99.90;;;;;;5084486;28;20183;-84
2021/11/20 05:55:31;;;;;;;5.40;2.17;;;10.70;99.90;;;;;;5080239;28;20180;-83
2021/11/20 05:57:57;;;;;;;6.03;2.10;;;10.60;99.90;;;;;;5076558;28;20274;-83
2021/11/20 06:00:29;;;;;;;8.43;2.50;;;10.90;99.90;;;;;;5072886;28;20219;-84
2021/11/20 06:02:56;;;;;;;7.73;1.93;;;11.20;99.90;;;;;;5094348;28;20201;-83
2021/11/20 06:05:23;;;;;;;5.37;2.10;;;11.20;99.90;;;;;;5093189;28;20230;-84
2021/11/20 06:07:48;;;;;;;3.77;2.10;;;11.20;99.90;;;;;;5094436;28;20243;-84
2021/11/20 06:10:14;;;;;;;4.50;2.17;;;10.80;99.90;;;;;;5109958;28;20183;-84
2021/11/20 06:12:40;;;;;;;6.33;2.33;;;10.90;99.90;;;;;;5093491;28;20183;-84
2021/11/20 06:15:06;;;;;;;6.77;2.20;;;10.80;99.90;;;;;;5093774;28;20577;-84
2021/11/20 06:17:32;;;;;;;5.93;2.47;;;11.00;99.90;;;;;;5094643;28;20244;-84
2021/11/20 06:19:58;;;;;;;8.40;2.00;;;;;;;;;;5093694;28;20235;-84
2021/11/20 06:22:24;;;;;;;4.70;2.20;;;;;;;;;;5093330;28;20732;-86
2021/11/20 06:24:51;;;;;;;5.20;2.27;;;10.80;99.90;;;;;;5086691;28;20186;-87
2021/11/20 06:27:17;;;;;;;9.67;2.87;;;;;;;;;;5091005;28;20267;-87
2021/11/20 06:29:43;;;;;;;7.43;2.30;;;10.80;99.90;;;;;;5094319;28;20179;-84
2021/11/20 06:32:09;;;;;;;7.80;2.57;;;10.80;99.90;;;;;;5090098;28;20265;-83
2021/11/20 06:34:35;;;;;;;8.60;3.00;;;10.60;99.90;;;;;;5073110;28;20694;-84
2021/11/20 06:37:01;;;;;;;8.90;2.60;;;10.80;99.90;;;;;;5076664;28;20666;-84
2021/11/20 06:39:28;;;;;;;7.37;2.67;;;;;;;;;;5086387;28;20190;-87
2021/11/20 06:41:54;;;;;;;7.63;2.70;;;11.10;99.90;;;;;;5067915;28;20190;-83
2021/11/20 06:44:20;;;;;;;9.47;2.50;;;10.70;99.90;;;;;;5090688;28;20186;-83
2021/11/20 06:46:46;;;;;;;9.30;3.00;;;11.20;99.90;;;;;;5087736;28;20197;-84
2021/11/20 06:49:12;;;;;;;3.93;2.67;;;10.80;99.90;;;;;;5086955;28;20720;-89
2021/11/20 06:51:38;;;;;;;8.37;3.07;;;;;;;;;;5096596;28;20278;-82
2021/11/20 06:54:05;;;;;;;6.90;3.03;;;10.80;99.90;;;;;;5083119;28;20243;-83
2021/11/20 06:56:43;;;;;;;6.13;2.80;;;8.50;99.90;;;;;;5083889;28;20207;-84
2021/11/20 06:59:17;;;;;;;9.33;3.33;;;10.80;99.90;;;;;;5088558;28;20667;-82
2021/11/20 07:01:47;;;;;;;14.97;3.53;;;10.80;99.90;;;;;;5088026;28;20203;-82
2021/11/20 07:04:17;;;;;;;5.57;2.60;;;10.60;99.90;;;;;;5089825;28;20256;-81
2021/11/20 07:06:49;;;;;;;8.97;3.37;;;10.90;99.90;;;;;;5092092;28;20234;-81
2021/11/20 07:09:16;;;;;;;8.90;3.60;;;10.90;99.90;;;;;;5083547;28;20194;-82
2021/11/20 07:11:42;;;;;;;8.57;3.20;;;;;;;;;;5089071;28;20182;-85
2021/11/20 07:14:08;;;;;;;9.33;3.27;;;10.90;99.90;;;;;;5088894;28;20189;-83
2021/11/20 07:16:34;;;;;;;10.70;4.13;;;;;;;;;;5083388;28;20206;-82
2021/11/20 07:19:01;;;;;;;9.13;4.00;;;10.60;99.90;;;;;;5077642;28;20183;-83
2021/11/20 07:21:28;;;;;;;10.33;4.17;;;10.50;99.90;;;;;;5089530;28;20180;-82
2021/11/20 07:23:56;;;;;;;8.93;4.83;;;11.10;99.90;;;;;;5084527;28;20190;-81
2021/11/20 07:26:23;;;;;;;10.83;4.40;;;;;;;;;;5081557;28;20174;-83
2021/11/20 07:28:50;;;;;;;8.40;4.30;;;10.80;99.90;;;;;;5090478;28;20187;-82
2021/11/20 07:31:16;;;;;;;9.90;3.50;;;11.00;99.90;;;;;;5084243;28;20174;-82
2021/11/20 07:33:42;;;;;;;8.87;4.17;;;;;;;;;;5075089;28;20191;-82
2021/11/20 07:36:10;;;;;;;6.17;3.43;;;10.60;99.90;;;;;;5063293;28;20221;-82
2021/11/20 07:38:40;;;;;;;8.93;3.73;;;10.90;99.90;;;;;;5083288;28;20265;-81
2021/11/20 07:41:07;;;;;;;13.23;4.60;;;10.80;99.90;;;;;;5082964;28;20185;-81
2021/11/20 07:43:32;;;;;;;10.67;3.90;;;10.60;99.90;;;;;;5082210;28;20182;-81
2021/11/20 07:45:58;;;;;;;7.73;3.77;;;10.70;99.90;;;;;;5078917;28;20206;-82
2021/11/20 07:48:26;;;;;;;7.70;3.50;;;10.80;99.90;;;;;;5090605;28;20178;-82
2021/11/20 07:50:54;;;;;;;10.03;4.07;;;10.80;99.90;;;;;;5088032;28;20183;-82
2021/11/20 07:53:20;;;;;;;12.33;4.07;;;11.10;99.90;;;;;;5081444;28;20170;-80
2021/11/20 07:55:47;;;;;;;10.50;4.67;;;10.90;99.90;;;;;;5091459;28;20210;-81
2021/11/20 07:58:14;;;;;;;7.90;3.33;;;11.00;99.90;;;;;;5094572;28;20193;-81
2021/11/20 08:00:41;;;;;;;8.60;3.43;;;10.70;99.90;;;;;;5100069;28;20201;-83
2021/11/20 08:03:08;;;;;;;9.67;4.10;;;11.00;99.90;;;;;;5096321;28;20175;-84
2021/11/20 08:05:35;;;;;;;9.30;4.73;;;11.20;99.90;;;;;;5082655;28;20230;-82
2021/11/20 08:08:01;;;;;;;13.73;5.03;;;11.10;99.90;;;;;;5081739;28;20194;-81
2021/11/20 08:10:28;;;;;;;9.37;3.87;;;11.20;99.90;;;;;;5092463;28;20183;-82
2021/11/20 08:12:54;;;;;;;15.50;5.50;;;11.10;99.90;;;;;;5089550;28;20647;-82
2021/11/20 08:15:20;;;;;;;10.70;3.53;;;10.90;99.90;;;;;;5090583;28;20270;-82
2021/11/20 08:17:46;;;;;;;13.90;4.70;;;;;;;;;;5086269;28;20249;-82
2021/11/20 08:20:15;;;;;;;5.87;3.40;;;10.90;99.90;;;;;;5087647;28;20738;-83
2021/11/20 08:22:41;;;;;;;9.13;3.47;;;10.70;99.90;;;;;;5088237;28;20178;-81
2021/11/20 08:25:10;;;;;;;8.57;3.87;;;10.60;99.90;;;;;;5087983;28;20171;-80
2021/11/20 08:27:36;;;;;;;15.20;3.70;;;;;;;;;;5095919;28;20186;-81
2021/11/20 08:30:07;;;;;;;12.87;3.80;;;10.80;99.90;;;;;;5095431;28;20210;-82
2021/11/20 08:32:33;;;;;;;12.80;4.10;;;;;;;;;;5091830;28;20241;-85
2021/11/20 08:34:59;;;;;;;10.17;3.97;;;;;;;;;;5099283;28;20270;-83
2021/11/20 08:37:26;;;;;;;9.40;3.53;;;11.10;99.90;;;;;;5078140;28;20312;-83
2021/11/20 08:39:55;;;;;;;9.07;4.07;;;10.90;99.90;;;;;;5090559;28;20183;-83
2021/11/20 08:42:21;;;;;;;13.70;4.27;;;;;;;;;;5087456;28;20185;-84
2021/11/20 08:44:46;;;;;;;9.80;4.50;;;11.00;99.90;;;;;;5087193;28;20949;-84
2021/11/20 08:47:13;;;;;;;9.33;5.00;;;;;;;;;;5086924;28;20191;-82
2021/11/20 08:49:38;;;;;;;11.40;4.50;;;10.60;99.90;;;;;;5092140;28;20232;-83
2021/11/20 08:52:05;;;;;;;14.33;4.00;;;10.80;99.90;;;;;;5086283;28;20669;-86
2021/11/20 08:54:30;;;;;;;8.83;4.37;;;10.80;99.90;;;;;;5085348;28;20179;-83
2021/11/20 08:56:57;;;;;;;9.17;4.53;;;10.80;99.90;;;;;;5089964;28;20298;-83
2021/11/20 08:59:25;;;;;;;12.27;4.10;;;10.80;99.90;;;;;;5090754;28;20247;-83
2021/11/20 09:01:56;;;;;;;13.27;4.60;;;11.00;99.90;;;;;;5086470;28;20286;-84
2021/11/20 09:04:42;;;;;;;9.13;3.80;;;10.90;99.90;;;;;;5107755;28;20175;-83
2021/11/20 09:07:07;;;;;;;12.70;4.10;;;10.90;99.90;;;;;;5094851;28;20237;-85
2021/11/20 09:09:34;;;;;;;10.50;4.10;;;;;;;;;;5094851;28;20190;-85
2021/11/20 09:12:22;;;;;;;13.57;4.70;;;10.90;99.90;;;;;;5096255;28;20623;-84
2021/11/20 09:14:50;;;;;;;8.50;4.47;;;10.70;99.90;;;;;;5093567;28;20191;-84
2021/11/20 09:17:18;;;;;;;11.67;4.67;;;10.70;99.90;;;;;;5080914;28;20233;-82
2021/11/20 09:19:44;;;;;;;12.97;5.17;;;11.30;99.90;;;;;;5090570;28;20187;-82
2021/11/20 09:22:11;;;;;;;13.80;4.93;;;11.30;99.90;;;;;;5090617;28;20179;-82
2021/11/20 09:24:40;;;;;;;13.63;5.10;;;10.70;99.90;;;;;;5100358;28;20178;-83
2021/11/20 09:27:10;;;;;;;12.30;4.43;;;10.80;99.90;;;;;;5106952;28;20179;-82
2021/11/20 09:29:36;;;;;;;11.73;4.00;;;11.20;99.90;;;;;;5108490;28;20175;-83
2021/11/20 09:32:03;;;;;;;13.53;4.83;;;10.90;99.90;;;;;;5108446;28;20174;-82
2021/11/20 09:34:29;;;;;;;10.23;4.83;;;10.90;99.90;;;;;;5117177;28;20240;-83
2021/11/20 09:36:57;;;;;;;10.67;4.90;;;10.90;99.90;;;;;;5120434;28;20194;-83
2021/11/20 09:39:30;;;;;;;9.77;4.13;;;11.00;99.90;;;;;;5120402;28;20179;-83
2021/11/20 09:42:05;;;;;;;14.07;4.93;;;;;;;;;;5120386;28;20166;-81
2021/11/20 09:44:36;;;;;;;10.87;4.53;;;11.70;99.90;;;;;;5105836;28;20189;-80
2021/11/20 09:47:18;;;;;;;12.87;4.83;;;11.40;99.90;;;;;;5098701;28;20242;-81
2021/11/20 09:49:50;;;;;;;12.67;4.83;;;11.50;99.90;;;;;;5103797;28;20704;-89
2021/11/20 09:52:16;;;;;;;11.48;5.00;;;;;;;;;;5101642;28;20176;-86
2021/11/20 09:54:45;;;;;;;8.67;4.10;;;11.50;99.90;;;;;;5097851;28;20201;-87
2021/11/20 09:57:11;;;;;;;8.70;4.30;;;;;;;;;;5123329;28;20206;-82
2021/11/20 09:59:40;;;;;;;16.37;4.07;;;10.90;99.90;;;;;;5090744;28;20216;-82
2021/11/20 10:02:12;;;;;;;7.50;3.50;;;11.40;99.90;;;;;;5091558;28;20193;-84
2021/11/20 10:05:08;;;;;;;10.57;5.13;;;11.20;99.90;;;;;;5094062;28;20189;-82
2021/11/20 10:07:51;;;;;;;11.50;4.33;;;11.50;99.90;;;;;;5089841;28;20247;-84
2021/11/20 10:10:45;;;;;;;12.37;4.33;;;12.00;99.90;;;;;;5084050;28;20171;-83
2021/11/20 10:13:17;;;;;;;10.73;4.35;;;11.60;99.90;;;;;;5087332;28;20194;-83
2021/11/20 10:16:07;;;;;;;7.57;3.83;;;11.60;99.90;;;;;;5088791;28;20193;-84
2021/11/20 10:18:53;;;;;;;9.23;4.28;;;11.40;99.90;;;;;;5100354;28;20191;-83
2021/11/20 10:21:30;;;;;;;8.95;3.88;;;11.40;99.90;;;;;;5086671;28;20175;-83
2021/11/20 10:24:40;;;;;;;9.75;4.60;;;11.60;99.90;;;;;;5086927;28;20167;-83
2021/11/20 10:27:21;;;;;;;8.52;3.60;;;11.60;99.90;;;;;;5087697;28;20579;-84
2021/11/20 10:29:59;;;;;;;9.57;3.47;;;12.00;99.90;;;;;;5081223;28;20269;-84
2021/11/20 10:32:37;;;;;;;10.07;3.23;;;12.10;99.90;;;;;;5087340;28;20167;-84
2021/11/20 10:35:14;;;;;;;6.30;3.17;;;11.50;99.90;;;;;;5092264;28;20182;-84
2021/11/20 10:38:07;;;;;;;9.38;3.00;;;11.60;99.90;;;;;;5086984;28;20219;-85
2021/11/20 10:40:39;;;;;;;15.20;2.97;;;11.80;99.90;;;;;;5085940;28;20635;-84
2021/11/20 10:43:19;;;;;;;11.23;2.90;;;11.60;99.90;;;;;;5088107;28;20167;-82
2021/11/20 10:46:00;;;;;;;7.28;3.03;;;11.00;99.90;;;;;;5087926;28;20170;-83
2021/11/20 10:48:41;;;;;;;13.27;2.70;;;11.30;99.90;;;;;;5088326;28;20186;-82
2021/11/20 10:51:30;;;;;;;7.35;2.80;;;11.10;99.90;;;;;;5084121;28;20211;-82
2021/11/20 10:54:34;;;;;;;12.57;2.50;;;11.00;99.90;;;;;;5081286;28;20183;-82
2021/11/20 10:57:31;;;;;;;9.77;2.47;;;11.10;99.90;;;;;;5074288;28;20210;-82
2021/11/20 11:00:27;;;;;;;10.80;2.70;;;10.90;99.90;;;;;;5079515;28;20235;-85
2021/11/20 11:02:53;;;;;;;10.10;2.20;;;;;;;;;;5079133;28;20728;-84
2021/11/20 11:05:26;;;;;;;10.40;2.97;;;10.60;99.90;;;;;;5087169;28;20253;-82
2021/11/20 11:07:52;;;;;;;12.63;2.20;;;;;;;;;;5082205;28;20197;-81
2021/11/20 11:10:27;;;;;;;12.73;2.53;;;11.40;99.90;;;;;;5082697;28;20265;-81
2021/11/20 11:13:20;;;;;;;7.67;2.67;;;11.60;99.90;;;;;;5088449;28;20231;-85
2021/11/20 11:16:20;;;;;;;8.73;3.00;;;11.90;99.90;;;;;;5081535;28;20550;-82
2021/11/20 11:18:51;;;;;;;8.25;2.47;;;12.00;99.90;;;;;;5077914;28;20190;-82
2021/11/20 11:21:39;;;;;;;10.00;2.78;;;12.30;99.90;;;;;;5087461;28;20182;-81
2021/11/20 11:24:13;;;;;;;8.83;2.50;;;12.30;99.90;;;;;;5085414;28;20638;-80
2021/11/20 11:26:48;;;;;;;11.10;2.47;;;11.70;99.90;;;;;;5085771;28;20186;-81
2021/11/20 11:29:24;;;;;;;5.45;2.25;;;12.00;99.90;;;;;;5087861;28;20178;-85
2021/11/20 11:31:52;;;;;;;9.10;2.40;;;12.60;99.90;;;;;;5084549;28;20210;-80
2021/11/20 11:34:24;;;;;;;7.93;2.50;;;12.60;99.90;;;;;;5081539;28;20642;-82
2021/11/20 11:37:08;;;;;;;7.93;2.53;;;12.90;99.90;;;;;;5088490;28;20198;-80
2021/11/20 11:39:34;;;;;;;11.75;2.58;;;;;;;;;;5081629;28;20175;-83
2021/11/20 11:42:25;;;;;;;12.82;2.55;;;14.00;99.90;;;;;;5087324;28;20201;-82
2021/11/20 11:44:51;;;;;;;9.18;2.70;;;;;;;;;;5083750;28;20257;-82
2021/11/20 11:47:17;;;;;;;5.40;2.33;;;;;;;;;;5085963;28;20265;-82
2021/11/20 11:49:51;;;;;;;7.03;2.53;;;13.80;99.90;;;;;;5085825;28;20194;-85
2021/11/20 11:52:47;;;;;;;9.00;3.08;;;13.70;99.90;;;;;;5081682;28;20691;-83
2021/11/20 11:55:13;;;;;;;5.32;2.38;;;;;;;;;;5077052;28;20416;-83
2021/11/20 11:58:03;;;;;;;7.30;2.42;;;12.90;99.90;;;;;;5079626;28;20252;-83
2021/11/20 12:00:39;;;;;;;7.15;3.03;;;12.50;99.90;;;;;;5087542;28;20189;-83
2021/11/20 12:03:29;;;;;;;9.68;2.92;;;12.50;99.90;;;;;;5080077;28;20276;-80
2021/11/20 12:06:16;;;;;;;5.18;2.38;;;12.50;99.90;;;;;;5084912;28;20222;-81
2021/11/20 12:08:52;;;;;;;14.88;2.80;;;12.70;99.90;;;;;;5084719;28;20186;-85
2021/11/20 12:11:35;;;;;;;6.82;2.63;;;12.80;99.90;;;;;;5088818;28;20185;-81
2021/11/20 12:14:13;;;;;;;10.45;2.85;;;12.60;99.90;;;;;;5086829;28;20182;-80
2021/11/20 12:16:53;;;;;;;8.00;2.80;;;12.60;99.90;;;;;;5078758;28;20558;-80
2021/11/20 12:19:22;;;;;;;5.75;2.58;;;;;;;;;;5083804;28;20628;-81
2021/11/20 12:22:14;;;;;;;9.00;2.80;;;12.80;99.90;;;;;;5086807;28;20170;-81
2021/11/20 12:24:40;;;;;;;11.40;3.25;;;;;;;;;;5087038;28;20178;-81
2021/11/20 12:27:40;;;;;;;7.22;2.60;;;12.50;99.90;;;;;;5091528;28;20178;-81
2021/11/20 12:30:30;;;;;;;7.55;3.15;;;13.10;99.90;;;;;;5074073;28;20183;-81
2021/11/20 12:33:34;;;;;;;9.55;2.50;;;14.10;99.90;;;;;;5085102;28;20190;-80
2021/11/20 12:36:22;;;;;;;5.88;2.33;;;14.10;99.90;;;;;;5090478;28;20198;-80
2021/11/20 12:39:11;;;;;;;7.97;2.67;;;14.50;99.90;;;;;;5086005;28;20182;-80
2021/11/20 12:42:12;;;;;;;9.07;3.05;;;14.70;99.90;;;;;;5034679;28;20194;-80
2021/11/20 12:45:15;;;;;;;6.00;2.50;;;14.80;99.90;;;;;;5081852;28;20210;-83
2021/11/20 12:48:09;;;;;;;8.40;2.83;;;14.80;99.90;;;;;;5079447;28;20191;-82
2021/11/20 12:50:36;;;;;;;10.40;2.97;;;;;;;;;;5085941;28;20193;-82
2021/11/20 12:53:22;;;;;;;11.48;4.13;;;13.20;99.90;;;;;;5084516;28;20266;-79
2021/11/20 12:56:06;;;;;;;10.30;2.88;;;12.70;99.90;;;;;;5077356;28;20239;-79
2021/11/20 12:58:40;;;;;;;9.93;3.25;;;12.60;99.90;;;;;;5083767;28;20186;-80
2021/11/20 13:01:12;;;;;;;9.55;3.50;;;11.80;99.90;;;;;;5090538;28;20210;-80
2021/11/20 13:03:44;;;;;;;12.98;3.20;;;11.90;99.90;;;;;;5087487;28;20253;-81
2021/11/20 13:06:21;;;;;;;9.00;3.42;;;12.00;99.90;;;;;;5088861;28;20269;-83
2021/11/20 13:09:16;;;;;;;8.20;3.30;;;11.80;99.90;;;;;;5086974;28;20197;-79
2021/11/20 13:12:23;;;;;;;10.23;3.13;;;11.70;99.90;;;;;;5087878;28;20187;-81
2021/11/20 13:15:00;;;;;;;11.30;4.18;;;11.90;99.90;;;;;;5084825;28;20182;-80
2021/11/20 13:17:34;;;;;;;12.82;3.80;;;11.50;99.90;;;;;;5084648;28;20578;-81
2021/11/20 13:20:10;;;;;;;9.43;3.55;;;12.20;99.90;;;;;;5086899;28;20231;-81